Time;durP1;ratioP1;P1;durP2;ratioP2;P2;SDS_P1;SDS_P2;PMS_P1;PMS_P2;Temp;Humidity;BMP_temperature;BMP_pressure;BME280_temperature;BME280_humidity;BME280_pressure;Samples;Min_cycle;Max_cycle;Signal;HPM_P1;HPM_P2
2023/10/16 00:01:54;;;;;;;1.10;0.50;;;7.60;99.90;;;;;;4243940;27;20019;-57
2023/10/16 00:03:56;;;;;;;1.30;0.67;;;7.60;99.90;;;;;;4245072;27;20027;-57
2023/10/16 00:05:57;;;;;;;2.43;0.90;;;7.50;99.90;;;;;;4244007;27;20043;-57
2023/10/16 00:08:05;;;;;;;2.30;0.70;;;7.50;99.90;;;;;;4245629;27;20051;-59
2023/10/16 00:10:11;;;;;;;1.30;0.63;;;7.50;99.90;;;;;;4243815;27;20083;-57
2023/10/16 00:12:15;;;;;;;1.50;0.50;;;7.50;99.90;;;;;;4229042;27;20028;-56
2023/10/16 00:14:23;;;;;;;1.27;0.60;;;7.50;99.90;;;;;;4244241;27;20072;-57
2023/10/16 00:16:24;;;;;;;2.77;0.77;;;7.50;99.90;;;;;;4244889;27;20603;-53
2023/10/16 00:18:33;;;;;;;2.60;0.50;;;7.50;99.90;;;;;;4243963;27;20035;-57
2023/10/16 00:20:36;;;;;;;2.50;0.60;;;7.50;99.90;;;;;;4244129;27;20027;-55
2023/10/16 00:22:37;;;;;;;3.10;0.90;;;7.50;99.90;;;;;;4227855;27;20089;-56
2023/10/16 00:24:45;;;;;;;5.10;1.47;;;7.50;99.90;;;;;;4244509;27;20051;-58
2023/10/16 00:26:49;;;;;;;4.77;1.60;;;7.50;99.90;;;;;;4244534;27;20440;-57
2023/10/16 00:29:02;;;;;;;2.60;0.70;;;7.50;99.90;;;;;;4244117;27;20531;-56
2023/10/16 00:31:03;;;;;;;3.70;0.80;;;7.50;99.90;;;;;;4244195;27;20035;-54
2023/10/16 00:33:11;;;;;;;2.43;0.57;;;7.50;99.90;;;;;;4244070;27;20052;-57
2023/10/16 00:35:15;;;;;;;2.10;0.60;;;7.50;99.90;;;;;;4244051;27;20035;-54
2023/10/16 00:37:20;;;;;;;3.33;1.30;;;7.50;99.90;;;;;;4243920;27;20092;-57
2023/10/16 00:39:25;;;;;;;3.43;0.90;;;7.40;99.90;;;;;;4244164;28;20035;-57
2023/10/16 00:41:28;;;;;;;1.23;0.40;;;7.50;99.90;;;;;;4242151;27;20035;-56
2023/10/16 00:43:32;;;;;;;2.33;0.67;;;7.50;99.90;;;;;;4244614;27;20076;-56
2023/10/16 00:45:45;;;;;;;2.27;0.70;;;7.40;99.90;;;;;;4243544;27;20106;-51
2023/10/16 00:47:47;;;;;;;4.17;0.77;;;7.40;99.90;;;;;;4244384;28;20072;-58
2023/10/16 00:49:49;;;;;;;3.53;1.20;;;7.40;99.90;;;;;;4243437;27;20039;-57
2023/10/16 00:51:51;;;;;;;3.13;0.80;;;7.30;99.90;;;;;;4244573;27;20572;-56
2023/10/16 00:53:52;;;;;;;4.43;0.90;;;7.30;99.90;;;;;;4242857;27;20381;-49
2023/10/16 00:55:57;;;;;;;1.47;0.70;;;7.30;99.90;;;;;;4245119;27;20031;-57
2023/10/16 00:58:00;;;;;;;3.43;1.17;;;7.20;99.90;;;;;;4243429;27;20031;-53
2023/10/16 01:00:02;;;;;;;3.93;1.10;;;7.20;99.90;;;;;;4244295;28;20079;-56
2023/10/16 01:04:10;;;;;;;1.10;0.77;;;7.20;99.90;;;;;;4244475;27;20087;-59
2023/10/16 01:06:16;;;;;;;3.40;0.83;;;7.10;99.90;;;;;;4243267;27;20081;-58
2023/10/16 01:08:18;;;;;;;2.30;0.60;;;7.10;99.90;;;;;;4244186;28;20475;-58
2023/10/16 01:10:20;;;;;;;3.03;0.90;;;7.10;99.90;;;;;;4243382;27;20081;-57
2023/10/16 01:12:22;;;;;;;4.20;0.63;;;7.00;99.90;;;;;;4244316;27;20147;-58
2023/10/16 01:14:23;;;;;;;2.27;1.07;;;7.00;99.90;;;;;;4243659;27;20031;-55
2023/10/16 01:16:25;;;;;;;9.67;1.37;;;6.90;99.90;;;;;;4244227;27;20035;-59
2023/10/16 01:18:26;;;;;;;3.10;1.00;;;6.90;99.90;;;;;;4243733;28;20047;-58
2023/10/16 01:20:27;;;;;;;3.80;0.60;;;6.80;99.90;;;;;;4243132;27;20036;-53
2023/10/16 01:22:29;;;;;;;2.77;0.83;;;6.80;99.90;;;;;;4243925;27;20043;-54
2023/10/16 01:24:30;;;;;;;3.67;0.77;;;6.80;99.90;;;;;;4242993;27;20047;-57
2023/10/16 01:26:31;;;;;;;5.27;0.93;;;6.70;99.90;;;;;;4245205;27;20464;-60
2023/10/16 01:28:33;;;;;;;6.27;1.33;;;6.70;99.90;;;;;;4242873;27;20099;-56
2023/10/16 01:30:34;;;;;;;3.50;0.83;;;6.60;99.90;;;;;;4243999;27;20038;-58
2023/10/16 01:32:38;;;;;;;5.23;1.10;;;6.60;99.90;;;;;;4243150;27;20073;-56
2023/10/16 01:34:41;;;;;;;1.50;0.70;;;6.50;99.90;;;;;;4244259;27;20433;-56
2023/10/16 01:36:45;;;;;;;3.30;1.20;;;6.50;99.90;;;;;;4242977;27;20043;-57
2023/10/16 01:38:46;;;;;;;4.83;1.30;;;6.50;99.90;;;;;;4244531;27;20072;-57
2023/10/16 01:43:11;;;;;;;3.10;0.93;;;6.50;99.90;;;;;;4243586;28;20368;-57
2023/10/16 01:45:14;;;;;;;5.40;1.13;;;6.40;99.90;;;;;;4243123;27;20491;-59
2023/10/16 01:47:15;;;;;;;2.07;1.00;;;6.40;99.90;;;;;;4246750;27;20036;-57
2023/10/16 01:49:16;;;;;;;3.87;1.00;;;6.30;99.90;;;;;;4246103;27;20088;-58
2023/10/16 01:51:20;;;;;;;2.93;0.90;;;6.30;99.90;;;;;;4246781;27;20027;-56
2023/10/16 01:53:33;;;;;;;1.80;0.57;;;6.30;99.90;;;;;;4246362;27;20055;-55
2023/10/16 01:55:34;;;;;;;4.67;0.90;;;6.20;99.90;;;;;;4246996;27;20035;-58
2023/10/16 01:57:35;;;;;;;3.00;0.83;;;6.20;99.90;;;;;;4246502;27;20035;-58
2023/10/16 01:59:49;;;;;;;3.77;1.43;;;6.20;99.90;;;;;;4246189;27;20027;-57
2023/10/16 02:01:50;;;;;;;3.07;1.30;;;6.20;99.90;;;;;;4237628;27;20039;-55
2023/10/16 02:03:51;;;;;;;3.83;1.80;;;6.10;99.90;;;;;;4245963;27;20376;-58
2023/10/16 02:05:53;;;;;;;3.50;1.17;;;6.10;99.90;;;;;;4246621;27;20088;-58
2023/10/16 02:07:56;;;;;;;2.30;1.07;;;6.10;99.90;;;;;;4245841;27;20453;-58
2023/10/16 02:09:57;;;;;;;3.07;1.27;;;6.00;99.90;;;;;;4246654;27;20100;-57
2023/10/16 02:11:59;;;;;;;5.50;1.33;;;6.00;99.90;;;;;;4245860;27;20146;-55
2023/10/16 02:14:00;;;;;;;4.30;1.03;;;6.00;99.90;;;;;;4247119;27;20084;-58
2023/10/16 02:16:02;;;;;;;2.73;1.13;;;6.00;99.90;;;;;;4245638;27;20047;-58
2023/10/16 02:18:09;;;;;;;2.67;0.80;;;6.00;99.90;;;;;;4246533;27;20031;-55
2023/10/16 02:20:13;;;;;;;2.20;1.10;;;6.00;99.90;;;;;;4245707;27;20104;-57
2023/10/16 02:22:16;;;;;;;5.87;0.97;;;6.00;99.90;;;;;;4246507;27;20031;-58
2023/10/16 02:24:17;;;;;;;2.20;1.13;;;6.00;99.90;;;;;;4245219;27;20095;-56
2023/10/16 02:26:18;;;;;;;5.60;1.70;;;6.00;99.90;;;;;;4247472;27;20047;-56
2023/10/16 02:28:19;;;;;;;5.60;1.73;;;6.00;99.90;;;;;;4245245;27;20088;-53
2023/10/16 02:32:25;;;;;;;8.93;1.20;;;6.00;99.90;;;;;;4245286;27;20547;-59
2023/10/16 02:34:26;;;;;;;4.73;1.37;;;6.00;99.90;;;;;;4245903;27;20035;-56
2023/10/16 02:36:27;;;;;;;5.43;1.37;;;5.90;99.90;;;;;;4246370;27;20031;-60
2023/10/16 02:38:28;;;;;;;4.27;1.60;;;5.90;99.90;;;;;;4245705;27;20148;-57
2023/10/16 02:40:32;;;;;;;4.97;2.00;;;5.80;99.90;;;;;;4246334;27;20043;-55
2023/10/16 02:42:34;;;;;;;3.57;1.97;;;5.80;99.90;;;;;;4244405;27;20023;-57
2023/10/16 02:44:38;;;;;;;2.23;1.10;;;5.80;99.90;;;;;;4245511;27;20072;-54
2023/10/16 02:46:41;;;;;;;2.23;1.20;;;5.80;99.90;;;;;;4245190;27;20508;-55
2023/10/16 02:48:42;;;;;;;5.77;1.70;;;5.70;99.90;;;;;;4246144;27;20027;-56
2023/10/16 02:50:49;;;;;;;4.60;1.77;;;5.70;99.90;;;;;;4245376;27;20437;-58
2023/10/16 02:52:52;;;;;;;8.07;2.00;;;5.70;99.90;;;;;;4246308;27;20055;-57
2023/10/16 02:54:56;;;;;;;7.67;3.40;;;5.70;99.90;;;;;;4244898;27;20030;-58
2023/10/16 02:56:59;;;;;;;7.37;2.83;;;5.70;99.90;;;;;;4245477;27;20055;-56
2023/10/16 02:59:07;;;;;;;6.83;2.20;;;5.60;99.90;;;;;;4244268;27;20043;-55
2023/10/16 03:01:18;;;;;;;7.83;2.93;;;5.60;99.90;;;;;;4245856;27;20560;-56
2023/10/16 03:03:21;;;;;;;7.37;2.60;;;5.60;99.90;;;;;;4245278;27;20054;-58
2023/10/16 03:05:24;;;;;;;10.83;2.47;;;5.60;99.90;;;;;;4246256;27;20055;-55
2023/10/16 03:07:26;;;;;;;4.87;1.47;;;5.60;99.90;;;;;;4245048;27;20051;-59
2023/10/16 03:09:28;;;;;;;5.57;2.40;;;5.60;99.90;;;;;;4246099;27;20039;-57
2023/10/16 03:11:29;;;;;;;9.30;2.73;;;5.60;99.90;;;;;;4244746;27;20061;-58
2023/10/16 03:13:35;;;;;;;4.70;1.80;;;5.60;99.90;;;;;;4245677;27;20158;-58
2023/10/16 03:15:46;;;;;;;6.00;1.50;;;5.60;99.90;;;;;;4245516;27;20028;-58
2023/10/16 03:17:56;;;;;;;5.43;2.83;;;5.70;99.90;;;;;;4245434;27;20028;-57
2023/10/16 03:19:57;;;;;;;4.53;2.47;;;5.70;99.90;;;;;;4244747;27;20851;-57
2023/10/16 03:21:59;;;;;;;9.90;3.80;;;5.70;99.90;;;;;;4244948;27;20119;-59
2023/10/16 03:24:00;;;;;;;6.90;1.50;;;5.60;99.90;;;;;;4244489;27;20047;-57
2023/10/16 03:26:18;;;;;;;3.70;1.50;;;5.60;99.90;;;;;;4244554;27;20456;-59
2023/10/16 03:28:20;;;;;;;7.20;1.73;;;5.50;99.90;;;;;;4245117;27;20047;-57
2023/10/16 03:30:26;;;;;;;7.33;1.57;;;5.50;99.90;;;;;;4244596;27;20063;-58
2023/10/16 03:32:31;;;;;;;3.47;1.43;;;5.50;99.90;;;;;;4244881;27;20453;-57
2023/10/16 03:34:32;;;;;;;3.47;1.73;;;5.50;99.90;;;;;;4244327;27;20064;-55
2023/10/16 03:36:34;;;;;;;4.57;1.40;;;5.50;99.90;;;;;;4245018;27;20085;-57
2023/10/16 03:38:37;;;;;;;6.17;2.00;;;5.40;99.90;;;;;;4243905;27;20076;-55
2023/10/16 03:40:41;;;;;;;4.13;2.10;;;5.40;99.90;;;;;;4245032;27;20115;-58
2023/10/16 03:42:43;;;;;;;8.70;2.50;;;5.40;99.90;;;;;;4243663;27;20056;-54
2023/10/16 03:44:45;;;;;;;5.60;2.07;;;5.30;99.90;;;;;;4245044;27;20048;-58
2023/10/16 03:46:47;;;;;;;4.60;1.80;;;5.30;99.90;;;;;;4242893;27;20394;-55
2023/10/16 03:48:48;;;;;;;7.80;1.60;;;5.30;99.90;;;;;;4245828;27;20031;-57
2023/10/16 03:50:55;;;;;;;7.47;2.20;;;5.30;99.90;;;;;;4243741;27;20059;-58
2023/10/16 03:52:57;;;;;;;4.93;2.27;;;5.30;99.90;;;;;;4244936;27;20046;-59
2023/10/16 03:55:12;;;;;;;8.30;2.30;;;5.30;99.90;;;;;;4244227;27;20368;-57
2023/10/16 03:57:13;;;;;;;7.50;2.20;;;5.40;99.90;;;;;;4244084;27;20130;-58
2023/10/16 03:59:15;;;;;;;4.67;2.03;;;5.30;99.90;;;;;;4243212;27;20503;-59
2023/10/16 04:01:27;;;;;;;6.63;1.93;;;5.40;99.90;;;;;;4244846;27;20031;-57
2023/10/16 04:03:42;;;;;;;6.27;2.20;;;5.40;99.90;;;;;;4244194;27;20003;-57
2023/10/16 04:05:46;;;;;;;3.40;1.60;;;5.30;99.90;;;;;;4228336;28;20016;-58
2023/10/16 04:07:47;;;;;;;5.43;2.97;;;5.30;99.90;;;;;;4226836;28;20024;-58
2023/10/16 04:09:52;;;;;;;7.50;3.60;;;5.30;99.90;;;;;;4226596;28;20043;-53
2023/10/16 04:11:54;;;;;;;5.63;3.23;;;5.30;99.90;;;;;;4234348;27;20068;-60
2023/10/16 04:13:55;;;;;;;4.17;2.27;;;5.30;99.90;;;;;;4243438;27;20107;-58
2023/10/16 04:18:04;;;;;;;6.60;2.90;;;5.30;99.90;;;;;;4243769;27;20031;-59
2023/10/16 04:22:27;;;;;;;6.47;2.58;;;5.30;99.90;;;;;;4244061;27;20031;-58
2023/10/16 04:26:33;;;;;;;6.30;3.27;;;5.30;99.90;;;;;;4243885;27;20083;-58
2023/10/16 04:28:49;;;;;;;5.03;2.10;;;5.30;99.90;;;;;;4244560;27;20047;-53
2023/10/16 04:30:52;;;;;;;5.53;2.33;;;5.30;99.90;;;;;;4243079;27;20423;-58
2023/10/16 04:36:47;;;;;;;;;;;5.20;99.90;;;;;;4235272;27;20051;-55
2023/10/16 04:38:23;;;;;;;9.07;2.50;;;5.20;99.90;;;;;;4227319;27;19904;-57
2023/10/16 04:45:00;;;;;;;9.40;3.80;;;5.10;99.90;;;;;;4236931;27;20043;-58
2023/10/16 04:47:01;;;;;;;5.27;2.00;;;5.10;99.90;;;;;;4242640;27;20043;-56
2023/10/16 04:49:04;;;;;;;7.13;2.47;;;5.10;99.90;;;;;;4244202;27;20039;-56
2023/10/16 04:51:16;;;;;;;7.40;3.10;;;5.20;99.90;;;;;;4243155;28;20068;-57
2023/10/16 04:53:25;;;;;;;4.13;2.90;;;5.20;99.90;;;;;;4243217;27;20097;-55
2023/10/16 04:57:48;;;;;;;6.73;2.67;;;5.30;99.90;;;;;;4244900;27;20031;-57
2023/10/16 04:59:59;;;;;;;7.47;2.87;;;5.40;99.90;;;;;;4242268;27;20023;-55
2023/10/16 05:02:10;;;;;;;4.87;2.10;;;5.50;99.90;;;;;;4243570;28;20088;-57
2023/10/16 05:04:34;;;;;;;6.82;2.85;;;5.70;99.90;;;;;;4243163;27;20055;-57
2023/10/16 05:08:49;;;;;;;6.90;2.60;;;6.20;99.90;;;;;;4242661;27;20079;-57
2023/10/16 05:11:23;;;;;;;4.87;2.13;;;6.40;99.90;;;;;;4244254;28;20031;-57
2023/10/16 05:15:51;;;;;;;7.07;3.93;;;7.00;99.90;;;;;;4244787;27;20039;-58
2023/10/16 05:18:10;;;;;;;12.57;3.90;;;7.20;99.90;;;;;;4243379;27;20039;-57
2023/10/16 06:14:14;;;;;;;2.70;1.17;;;11.10;99.90;;;;;;4245703;27;20060;-58
2023/10/16 06:16:18;;;;;;;2.87;1.30;;;11.50;99.90;;;;;;4246665;27;20028;-58
2023/10/16 06:18:19;;;;;;;4.53;1.83;;;12.00;99.90;;;;;;4245278;27;20031;-58
2023/10/16 06:20:21;;;;;;;1.88;1.15;;;11.80;99.90;;;;;;4246513;27;20416;-57
2023/10/16 06:22:22;;;;;;;5.27;1.47;;;11.70;99.90;;;;;;4245591;27;20048;-58
2023/10/16 06:24:25;;;;;;;3.47;1.33;;;11.70;99.90;;;;;;4246482;27;20063;-55
2023/10/16 06:26:27;;;;;;;2.53;1.20;;;11.50;99.90;;;;;;4245272;27;20500;-57
2023/10/16 06:28:28;;;;;;;4.13;1.50;;;11.40;99.90;;;;;;4246521;27;20039;-57
2023/10/16 06:30:29;;;;;;;4.97;1.93;;;11.40;99.90;;;;;;4245210;27;20020;-58
2023/10/16 06:32:35;;;;;;;2.17;1.20;;;11.50;99.90;;;;;;4244874;27;20475;-58
2023/10/16 06:34:37;;;;;;;3.97;1.10;;;12.00;99.90;;;;;;4245363;27;20051;-57
2023/10/16 06:36:38;;;;;;;3.37;1.40;;;12.00;99.90;;;;;;4245760;27;20064;-59
2023/10/16 06:38:40;;;;;;;8.40;1.60;;;12.30;99.90;;;;;;4245316;27;20076;-57
2023/10/16 06:40:41;;;;;;;2.77;1.10;;;12.30;99.90;;;;;;4245488;27;20364;-59
2023/10/16 06:42:45;;;;;;;5.23;1.37;;;12.20;99.90;;;;;;4246028;27;20038;-58
2023/10/16 06:44:53;;;;;;;3.67;1.00;;;11.90;99.90;;;;;;4245161;27;20084;-59
2023/10/16 06:46:58;;;;;;;8.50;4.90;;;11.80;99.90;;;;;;4246416;27;20087;-56
2023/10/16 06:49:00;;;;;;;7.60;2.33;;;12.00;99.90;;;;;;4245151;27;20040;-60
2023/10/16 06:51:04;;;;;;;1.97;1.53;;;12.50;99.90;;;;;;4246063;27;20133;-57
2023/10/16 06:53:05;;;;;;;3.33;1.07;;;12.60;99.90;;;;;;4244842;27;20465;-59
2023/10/16 06:55:07;;;;;;;4.47;1.40;;;12.90;99.90;;;;;;4245984;27;20452;-57
2023/10/16 06:57:11;;;;;;;4.53;1.00;;;13.10;99.90;;;;;;4244384;27;20027;-58
2023/10/16 06:59:16;;;;;;;1.93;0.70;;;12.90;99.90;;;;;;4246412;27;20414;-59
2023/10/16 07:01:19;;;;;;;3.90;1.50;;;12.70;99.90;;;;;;4244568;27;20039;-57
2023/10/16 07:03:20;;;;;;;2.83;0.80;;;13.00;99.90;;;;;;4245693;27;20468;-59
2023/10/16 07:05:42;;;;;;;4.10;1.23;;;13.50;99.90;;;;;;4244924;27;20043;-59
2023/10/16 07:07:47;;;;;;;2.03;0.83;;;13.80;99.90;;;;;;4245665;27;20031;-59
2023/10/16 07:09:48;;;;;;;2.83;1.00;;;13.00;99.90;;;;;;4244496;27;20034;-56
2023/10/16 07:11:49;;;;;;;2.07;0.80;;;12.50;99.90;;;;;;4245837;27;20035;-54
2023/10/16 07:13:50;;;;;;;4.97;1.50;;;12.10;99.90;;;;;;4244896;27;20103;-55
2023/10/16 07:15:53;;;;;;;3.07;1.00;;;12.20;99.90;;;;;;4245575;27;20061;-56
2023/10/16 07:17:55;;;;;;;3.90;1.10;;;12.20;99.90;;;;;;4245152;27;20023;-57
2023/10/16 07:20:00;;;;;;;4.10;1.10;;;12.30;99.90;;;;;;4244971;27;20087;-59
2023/10/16 07:22:01;;;;;;;3.50;0.90;;;12.40;99.90;;;;;;4245233;27;20459;-57
2023/10/16 07:24:03;;;;;;;3.30;1.00;;;12.80;99.90;;;;;;4244576;27;20040;-59
2023/10/16 07:26:06;;;;;;;1.93;0.90;;;12.90;99.90;;;;;;4245776;27;20099;-58
2023/10/16 07:28:09;;;;;;;1.87;0.50;;;12.90;99.90;;;;;;4245373;27;20051;-57
2023/10/16 07:30:21;;;;;;;4.00;0.90;;;13.00;99.90;;;;;;4245539;27;20131;-60
2023/10/16 07:32:23;;;;;;;2.50;1.00;;;13.30;99.90;;;;;;4244354;27;20096;-55
2023/10/16 07:34:24;;;;;;;4.30;1.00;;;13.30;99.90;;;;;;4245559;27;20112;-59
2023/10/16 07:36:26;;;;;;;4.07;1.00;;;13.60;99.90;;;;;;4244296;27;20060;-57
2023/10/16 07:38:28;;;;;;;1.87;0.90;;;13.50;99.90;;;;;;4245496;27;20052;-60
2023/10/16 07:40:29;;;;;;;1.57;0.63;;;13.80;99.90;;;;;;4243962;27;20445;-59
2023/10/16 07:42:31;;;;;;;1.50;0.50;;;13.90;99.90;;;;;;4244954;27;20047;-59
2023/10/16 07:44:35;;;;;;;4.20;0.87;;;13.70;99.90;;;;;;4244061;27;20095;-59
2023/10/16 07:46:38;;;;;;;3.83;0.87;;;13.20;99.90;;;;;;4245235;27;20026;-57
2023/10/16 07:48:40;;;;;;;2.57;0.70;;;13.10;99.90;;;;;;4244246;27;20081;-60
2023/10/16 07:50:41;;;;;;;1.20;0.60;;;13.10;99.90;;;;;;4244754;27;20092;-59
2023/10/16 07:52:43;;;;;;;1.07;0.50;;;13.30;99.90;;;;;;4244131;27;20039;-59
2023/10/16 07:54:44;;;;;;;6.17;0.70;;;13.40;99.90;;;;;;4244799;27;20556;-59
2023/10/16 07:56:45;;;;;;;3.10;0.90;;;13.00;99.90;;;;;;4244542;27;20039;-58
2023/10/16 07:58:51;;;;;;;2.23;0.83;;;12.80;99.90;;;;;;4244671;27;20031;-57
2023/10/16 08:03:13;;;;;;;1.70;0.70;;;12.40;99.90;;;;;;4244446;27;20072;-60
2023/10/16 08:05:15;;;;;;;2.77;0.63;;;12.30;99.90;;;;;;4244917;27;20139;-59
2023/10/16 08:07:20;;;;;;;4.57;1.37;;;12.20;99.90;;;;;;4244277;27;20083;-58
2023/10/16 08:11:23;;;;;;;4.00;0.60;;;12.40;99.90;;;;;;4244098;27;20165;-58
2023/10/16 08:13:24;;;;;;;3.63;0.60;;;12.30;99.90;;;;;;4244875;27;20693;-58
2023/10/16 08:15:27;;;;;;;2.30;0.67;;;12.20;99.90;;;;;;4243688;27;20039;-58
2023/10/16 08:17:32;;;;;;;2.10;0.50;;;12.10;99.90;;;;;;4244728;27;20019;-59
2023/10/16 08:19:36;;;;;;;3.23;0.80;;;12.10;99.90;;;;;;4244113;27;20055;-58
2023/10/16 08:21:39;;;;;;;0.77;0.33;;;12.30;99.90;;;;;;4245077;27;20122;-58
2023/10/16 08:23:45;;;;;;;1.33;0.50;;;12.40;99.80;;;;;;4243536;27;20127;-57
2023/10/16 08:25:47;;;;;;;2.00;0.37;;;12.50;99.80;;;;;;4244696;27;20055;-58
2023/10/16 08:27:49;;;;;;;1.07;0.47;;;12.60;99.40;;;;;;4244076;27;20069;-59
2023/10/16 08:29:53;;;;;;;1.80;0.40;;;12.60;99.30;;;;;;4245038;27;20031;-59
2023/10/16 08:32:43;;;;;;;1.87;0.70;;;12.70;99.40;;;;;;4243022;27;20397;-58
2023/10/16 08:34:21;;;;;;;0.80;0.40;;;12.90;99.30;;;;;;4244116;27;20031;-59
2023/10/16 08:36:23;;;;;;;1.07;0.40;;;12.80;99.20;;;;;;4241797;27;20031;-59
2023/10/16 08:38:32;;;;;;;1.63;0.43;;;12.50;98.90;;;;;;4244175;27;20072;-59
2023/10/16 08:40:34;;;;;;;2.60;0.50;;;12.30;99.10;;;;;;4242830;27;20020;-59
2023/10/16 08:42:37;;;;;;;1.57;0.80;;;11.90;99.10;;;;;;4243915;27;20092;-56
2023/10/16 08:44:39;;;;;;;3.80;0.60;;;11.70;99.40;;;;;;4243147;27;20076;-58
2023/10/16 08:49:00;;;;;;;3.37;0.60;;;11.50;99.80;;;;;;4243400;27;20068;-58
2023/10/16 08:51:08;;;;;;;2.50;0.40;;;11.30;99.80;;;;;;4243711;28;20031;-58
2023/10/16 08:53:30;;;;;;;1.87;0.80;;;11.20;99.80;;;;;;4243054;27;20036;-59
2023/10/16 08:55:34;;;;;;;3.90;0.77;;;11.10;99.80;;;;;;4242267;27;20527;-58
2023/10/16 08:57:37;;;;;;;2.57;0.60;;;11.00;99.90;;;;;;4246626;27;20456;-58
2023/10/16 08:59:42;;;;;;;2.13;0.60;;;11.00;99.90;;;;;;4247670;27;20099;-58
2023/10/16 09:01:48;;;;;;;2.23;0.60;;;10.90;99.70;;;;;;4246864;27;20072;-59
2023/10/16 09:04:05;;;;;;;1.27;0.50;;;10.70;99.90;;;;;;4246853;27;20112;-59
2023/10/16 09:06:06;;;;;;;9.90;0.97;;;10.70;99.70;;;;;;4247103;27;20040;-58
2023/10/16 09:08:14;;;;;;;8.93;1.60;;;10.50;99.90;;;;;;4246743;27;20459;-58
2023/10/16 09:10:16;;;;;;;4.40;0.87;;;10.40;99.90;;;;;;4247175;27;20043;-57
2023/10/16 09:12:26;;;;;;;10.00;2.07;;;10.30;99.70;;;;;;4246155;27;20053;-59
2023/10/16 09:14:27;;;;;;;6.13;1.50;;;10.40;99.90;;;;;;4246901;27;20420;-59
2023/10/16 09:16:31;;;;;;;1.87;0.50;;;10.40;99.90;;;;;;4246343;27;20039;-58
2023/10/16 09:18:34;;;;;;;3.13;0.50;;;10.30;99.90;;;;;;4247260;27;20027;-58
2023/10/16 09:20:41;;;;;;;3.63;0.80;;;10.50;99.90;;;;;;4245997;27;20047;-58
2023/10/16 09:22:49;;;;;;;1.03;0.40;;;10.60;99.90;;;;;;4247207;27;20043;-59
2023/10/16 09:24:51;;;;;;;0.80;0.60;;;10.70;99.90;;;;;;4227167;28;21178;-59
2023/10/16 09:26:54;;;;;;;1.43;0.40;;;10.90;99.90;;;;;;4247239;27;20355;-58
2023/10/16 09:29:03;;;;;;;3.80;0.70;;;11.10;99.90;;;;;;4246628;27;20395;-56
2023/10/16 09:31:08;;;;;;;8.90;1.83;;;11.10;99.90;;;;;;4247102;27;20035;-58
2023/10/16 09:33:10;;;;;;;1.97;1.03;;;10.90;99.50;;;;;;4245935;27;20031;-56
2023/10/16 09:35:12;;;;;;;1.40;0.30;;;10.90;99.90;;;;;;4247050;27;20138;-56
2023/10/16 09:37:20;;;;;;;2.20;0.57;;;10.90;99.90;;;;;;4246122;27;20046;-58
2023/10/16 09:39:30;;;;;;;1.07;0.33;;;11.00;99.90;;;;;;4247324;27;20039;-58
2023/10/16 09:41:40;;;;;;;1.53;0.40;;;10.90;99.90;;;;;;4245878;27;20043;-58
2023/10/16 09:43:42;;;;;;;3.15;0.60;;;10.70;99.70;;;;;;4247322;27;20444;-58
2023/10/16 09:45:46;;;;;;;0.70;0.50;;;10.50;99.90;;;;;;4245950;27;20352;-58
2023/10/16 09:47:49;;;;;;;1.63;0.50;;;10.50;99.90;;;;;;4247061;27;20027;-60
2023/10/16 09:49:50;;;;;;;1.07;0.53;;;10.50;99.90;;;;;;4245973;27;20066;-59
2023/10/16 09:51:59;;;;;;;4.93;0.50;;;10.80;99.90;;;;;;4246720;27;20096;-60
2023/10/16 09:54:02;;;;;;;0.90;0.50;;;11.00;99.90;;;;;;4246028;27;20051;-58
2023/10/16 09:56:06;;;;;;;3.00;0.77;;;11.30;99.90;;;;;;4246518;27;20039;-59
2023/10/16 09:58:09;;;;;;;3.30;1.60;;;11.30;99.90;;;;;;4245999;27;20084;-57
2023/10/16 10:00:31;;;;;;;4.50;2.33;;;11.20;99.90;;;;;;4246902;27;20084;-54
2023/10/16 10:02:36;;;;;;;7.00;3.53;;;11.00;99.90;;;;;;4245991;27;20019;-57
2023/10/16 10:04:43;;;;;;;3.23;1.90;;;10.90;99.90;;;;;;4246627;27;20039;-59
2023/10/16 10:06:50;;;;;;;2.77;1.50;;;10.80;99.90;;;;;;4245952;27;20107;-57
2023/10/16 10:13:23;;;;;;;3.83;2.27;;;10.90;99.90;;;;;;4245876;27;20043;-57
2023/10/16 10:15:26;;;;;;;5.27;1.70;;;11.00;99.90;;;;;;4245446;27;20043;-62
2023/10/16 10:17:31;;;;;;;5.17;0.90;;;11.10;99.90;;;;;;4245789;27;20401;-61
2023/10/16 10:19:35;;;;;;;1.03;0.50;;;11.20;99.90;;;;;;4244585;27;20043;-55
2023/10/16 10:21:45;;;;;;;2.53;0.97;;;11.20;99.90;;;;;;4245613;27;20019;-60
2023/10/16 10:23:48;;;;;;;0.95;0.70;;;11.30;99.70;;;;;;4245717;27;20035;-59
2023/10/16 10:25:53;;;;;;;1.70;0.63;;;11.40;99.60;;;;;;4245268;27;20043;-58
2023/10/16 10:27:55;;;;;;;2.40;0.80;;;11.40;99.40;;;;;;4246309;27;20066;-59
2023/10/16 10:30:01;;;;;;;2.90;0.40;;;11.60;99.70;;;;;;4245412;27;20031;-59
2023/10/16 10:32:06;;;;;;;2.33;0.60;;;11.80;99.80;;;;;;4246423;27;20043;-58
2023/10/16 10:34:28;;;;;;;1.30;0.53;;;11.90;99.50;;;;;;4244893;27;20491;-60
2023/10/16 10:36:34;;;;;;;1.10;0.23;;;12.00;98.90;;;;;;4246140;27;20489;-59
2023/10/16 10:38:36;;;;;;;2.40;0.93;;;12.10;99.00;;;;;;4244509;27;20043;-59
2023/10/16 10:40:37;;;;;;;1.80;0.70;;;12.20;98.50;;;;;;4245618;27;20039;-57
2023/10/16 10:42:38;;;;;;;1.83;0.40;;;12.20;98.20;;;;;;4244782;27;20027;-58
2023/10/16 10:44:52;;;;;;;3.50;2.07;;;12.30;98.50;;;;;;4246636;27;20035;-58
2023/10/16 10:46:54;;;;;;;3.17;0.63;;;12.30;98.20;;;;;;4244680;27;20035;-59
2023/10/16 10:48:56;;;;;;;2.67;0.90;;;12.40;98.20;;;;;;4245929;27;20099;-59
2023/10/16 10:51:00;;;;;;;1.33;0.63;;;12.40;97.90;;;;;;4244516;27;20139;-55
2023/10/16 10:53:13;;;;;;;1.87;0.60;;;12.40;97.60;;;;;;4245881;27;20061;-59
2023/10/16 10:55:18;;;;;;;2.50;0.93;;;12.40;97.00;;;;;;4244759;27;20152;-58
2023/10/16 10:57:24;;;;;;;2.23;0.80;;;12.40;97.50;;;;;;4245959;27;20035;-59
2023/10/16 10:59:41;;;;;;;2.13;0.40;;;12.50;97.50;;;;;;4244925;27;20027;-58
2023/10/16 11:02:08;;;;;;;2.20;0.63;;;12.60;96.80;;;;;;4245871;27;20052;-59
2023/10/16 11:04:15;;;;;;;2.33;0.60;;;12.60;97.20;;;;;;4244831;27;20047;-59
2023/10/16 11:06:21;;;;;;;0.80;0.60;;;12.60;96.90;;;;;;4245981;27;20468;-59
2023/10/16 11:08:26;;;;;;;2.93;0.77;;;12.60;96.80;;;;;;4242700;27;20487;-57
2023/10/16 11:10:27;;;;;;;3.37;1.20;;;12.70;96.70;;;;;;4245920;27;20495;-57
2023/10/16 11:12:30;;;;;;;2.83;0.67;;;12.70;96.20;;;;;;4244517;27;20084;-58
2023/10/16 11:14:41;;;;;;;1.67;0.50;;;12.70;96.20;;;;;;4245613;27;20088;-58
2023/10/16 11:16:43;;;;;;;2.03;0.70;;;12.90;96.30;;;;;;4244595;27;20098;-58
2023/10/16 11:18:58;;;;;;;2.07;0.90;;;13.00;95.90;;;;;;4244812;27;20076;-58
2023/10/16 11:21:04;;;;;;;3.60;0.50;;;13.00;95.40;;;;;;4244010;27;20051;-57
2023/10/16 11:23:15;;;;;;;1.60;0.40;;;13.00;95.00;;;;;;4245515;27;20433;-58
2023/10/16 11:25:16;;;;;;;2.88;0.60;;;12.90;94.90;;;;;;4242168;27;20047;-57
2023/10/16 11:27:17;;;;;;;4.03;0.53;;;12.90;95.20;;;;;;4244703;27;20107;-58
2023/10/16 11:29:19;;;;;;;1.67;0.73;;;13.00;95.60;;;;;;4244250;27;20175;-57
2023/10/16 11:31:21;;;;;;;3.53;0.90;;;13.10;95.90;;;;;;4244001;27;20088;-57
2023/10/16 11:34:00;;;;;;;3.77;0.70;;;13.20;95.90;;;;;;4244440;27;20084;-58
2023/10/16 11:35:50;;;;;;;1.97;0.50;;;13.20;95.50;;;;;;4244708;27;20051;-58
2023/10/16 11:38:12;;;;;;;2.37;0.67;;;13.20;95.50;;;;;;4244178;27;20432;-57
2023/10/16 11:40:19;;;;;;;3.37;0.50;;;13.30;95.70;;;;;;4244855;27;20031;-58
2023/10/16 11:42:24;;;;;;;3.17;0.60;;;13.30;95.50;;;;;;4243829;27;20069;-58
2023/10/16 11:44:26;;;;;;;2.43;0.70;;;13.20;95.60;;;;;;4244831;27;20035;-58
2023/10/16 11:46:34;;;;;;;3.00;0.67;;;13.20;95.70;;;;;;4244107;27;20072;-56
2023/10/16 11:48:39;;;;;;;0.93;0.60;;;13.20;95.60;;;;;;4244947;27;20035;-59
2023/10/16 11:50:41;;;;;;;1.53;0.90;;;13.20;95.70;;;;;;4244097;27;20019;-56
2023/10/16 11:52:42;;;;;;;4.50;0.70;;;13.20;95.40;;;;;;4244509;27;20495;-55
2023/10/16 11:54:45;;;;;;;3.27;0.77;;;13.30;95.60;;;;;;4244536;27;20047;-58
2023/10/16 11:56:54;;;;;;;1.20;0.40;;;13.20;95.00;;;;;;4243887;27;20027;-57
2023/10/16 11:58:55;;;;;;;2.87;0.73;;;13.20;94.60;;;;;;4244720;27;20039;-56
2023/10/16 12:01:07;;;;;;;1.70;0.30;;;13.20;94.60;;;;;;4243940;27;20422;-59
2023/10/16 12:03:14;;;;;;;1.03;0.43;;;13.30;94.60;;;;;;4244862;27;20047;-56
2023/10/16 12:05:15;;;;;;;2.40;0.73;;;13.30;94.20;;;;;;4243890;27;20039;-56
2023/10/16 12:07:17;;;;;;;1.50;0.87;;;13.30;93.90;;;;;;4244698;27;20088;-58
2023/10/16 12:09:19;;;;;;;2.80;0.50;;;13.20;93.30;;;;;;4243347;27;20031;-56
2023/10/16 12:11:20;;;;;;;1.40;0.50;;;13.10;93.90;;;;;;4244687;27;20032;-58
2023/10/16 12:13:21;;;;;;;1.17;0.43;;;13.10;93.70;;;;;;4243740;27;20292;-57
2023/10/16 12:15:25;;;;;;;3.40;0.37;;;13.10;93.30;;;;;;4244509;27;20100;-54
2023/10/16 12:17:28;;;;;;;1.37;0.40;;;13.10;93.20;;;;;;4243633;27;20035;-58
2023/10/16 12:19:29;;;;;;;1.37;0.63;;;13.10;93.20;;;;;;4244455;27;20084;-56
2023/10/16 12:21:30;;;;;;;3.17;0.70;;;13.10;93.30;;;;;;4243352;27;20039;-56
2023/10/16 12:23:36;;;;;;;1.43;0.50;;;13.20;93.20;;;;;;4244078;27;20039;-57
2023/10/16 12:25:39;;;;;;;1.03;0.67;;;13.20;93.00;;;;;;4243232;27;20046;-60